ADDS TAF Board (Experimental) INFO Settings
IDs: Format: Expanded Condensed

KBWI - Baltimore-Washington, MD, US

Issued at 1123 UTC 01 Oct 2016
Updated at 1347 UTC 01 Oct 2016
Time1254Z 01/14Z 01/15Z 01/16Z 01/17Z 01/18Z 01/19Z 01/20Z 01/21Z 01/22Z 01/23Z 02/00Z 02/01Z 02/02Z
Type OBS PRVL PRVL PRVL PRVL PRVL PRVL PRVL PRVL PRVL PRVL PRVL PRVL PRVL
VIS 1.75 3 3 3 3 5 5 5 5 5 5 5 5 5
CIG 4 3 8 8 8 8 8 8 8 8 8 8 8 8
Cover OVC OVC OVC OVC OVC OVC OVC OVC OVC OVC OVC OVC OVC OVC
FltCat LIFR LIFR IFR IFR IFR IFR IFR IFR IFR IFR IFR IFR IFR IFR
WX -RA BR -RA -DZ BR -RA -DZ BR -RA -DZ BR -RA -DZ BR BR BR BR BR BR BR BR BR BR
WDir 60 60 60 60 60 90 90 90 90 90 90 90 90 90
WSpd 15 7 6 6 6 6 6 6 6 6 6 6 6 6
WGst -- -- -- -- -- -- -- -- -- -- -- -- -- --
R04/22
XWnd -7 -3 -3 -3 -3 -5 -5 -5 -5 -5 -5 -5 -5 -5
HWnd 13 6 5 5 5 3 3 3 3 3 3 3 3 3
R10/28
XWnd 8 4 3 3 3 0 0 0 0 0 0 0 0 0
HWnd 12 6 5 5 5 6 6 6 6 6 6 6 6 6
R15/33
XWnd 15 7 6 6 6 5 5 5 5 5 5 5 5 5
HWnd 2 1 1 1 1 4 4 4 4 4 4 4 4 4

Raw TAF
KBWI 011123Z 0112/0218 06007KT 3SM -RADZ BR OVC003
  FM011500 06006KT 3SM -RADZ BR OVC008
  FM011800 09006KT 5SM BR OVC008
  FM021200 VRB03KT 3SM BR SCT008
  FM021500 VRB03KT P6SM SCT020


Raw METAR
KBWI 011254Z 06015KT 1 3/4SM -RA BR OVC004 16/15 A3013 RMK AO2 DZE52RAB52 SLP204 P0000 T01560150
KBWI 011154Z COR 06012KT 1 1/2SM -DZ BR OVC004 16/16 A3014 RMK AO2 SLP205 P0001 60001 70009 T01610156 10167 20161 53008
KBWI 011135Z 07013KT 1 1/2SM -DZ BR OVC004 16/16 A3013 RMK AO2 P0001 T01610156
KBWI 011059Z 07009KT 3SM -DZ BR OVC004 16/16 A3013 RMK AO2 P0000 T01610156
KBWI 011054Z 07008KT 3SM -DZ BR OVC006 16/16 A3012 RMK AO2 RAE00DZB00 SLP200 P0000 T01610156

METAR Board
Radar Display
Forecast Discussion

TAF Board Legend

Potential Impact
Threat None Slight Moderate High
Visibility (sm) ≥5.1 5.1>X≥3 3>X≥1 <1
Ceiling (100 ft) ≥30.1 30.1>X≥10 10>X≥5 <5
Wind Speed (kt) <10 10≤X<20 20≤X<30 ≥30
Wind Gust (kt) <15 15≤X<25 25≤X<35 ≥35
Weather No Wx Reported VCTS,-TS,-FZRA,SN TS,FZRA +TS,+FZRA,+SN